sensor_id;sensor_type;location;lat;lon;timestamp;pressure;altitude;pressure_sealevel;temperature;humidity
22662;BME280;11497;52.222;21.246;2023-04-04T00:00:38;101263.34;;;0.59;63.93
22662;BME280;11497;52.222;21.246;2023-04-04T00:03:16;101264.03;;;0.52;64.40
22662;BME280;11497;52.222;21.246;2023-04-04T00:05:44;101262.75;;;0.32;64.80
22662;BME280;11497;52.222;21.246;2023-04-04T00:08:12;101261.22;;;0.40;65.14
22662;BME280;11497;52.222;21.246;2023-04-04T00:10:40;101264.34;;;0.27;65.50
22662;BME280;11497;52.222;21.246;2023-04-04T00:13:08;101259.78;;;0.15;66.03
22662;BME280;11497;52.222;21.246;2023-04-04T00:15:36;101263.19;;;0.14;66.33
22662;BME280;11497;52.222;21.246;2023-04-04T00:18:03;101256.97;;;0.05;66.55
22662;BME280;11497;52.222;21.246;2023-04-04T00:20:31;101258.34;;;0.26;66.75
22662;BME280;11497;52.222;21.246;2023-04-04T00:22:59;101258.06;;;0.14;67.09
22662;BME280;11497;52.222;21.246;2023-04-04T00:25:27;101251.69;;;-0.02;66.99
22662;BME280;11497;52.222;21.246;2023-04-04T00:27:55;101253.72;;;-0.24;67.56
22662;BME280;11497;52.222;21.246;2023-04-04T00:30:27;101244.03;;;-0.35;68.54
22662;BME280;11497;52.222;21.246;2023-04-04T00:32:56;101251.47;;;-0.47;68.73
22662;BME280;11497;52.222;21.246;2023-04-04T00:35:24;101242.53;;;-0.61;69.27
22662;BME280;11497;52.222;21.246;2023-04-04T00:37:52;101249.41;;;-0.60;69.66
22662;BME280;11497;52.222;21.246;2023-04-04T00:40:20;101251.22;;;-0.56;70.43
22662;BME280;11497;52.222;21.246;2023-04-04T00:42:47;101241.25;;;-0.77;71.13
22662;BME280;11497;52.222;21.246;2023-04-04T00:45:15;101248.69;;;-0.87;71.53
22662;BME280;11497;52.222;21.246;2023-04-04T00:47:43;101235.91;;;-0.84;71.71
22662;BME280;11497;52.222;21.246;2023-04-04T00:50:11;101232.78;;;-1.06;71.77
22662;BME280;11497;52.222;21.246;2023-04-04T00:52:39;101232.53;;;-1.15;72.30
22662;BME280;11497;52.222;21.246;2023-04-04T00:55:07;101233.34;;;-1.16;72.86
22662;BME280;11497;52.222;21.246;2023-04-04T00:57:35;101233.91;;;-1.26;73.77
22662;BME280;11497;52.222;21.246;2023-04-04T01:00:03;101230.19;;;-1.37;73.94
22662;BME280;11497;52.222;21.246;2023-04-04T01:02:32;101218.09;;;-1.41;74.34
22662;BME280;11497;52.222;21.246;2023-04-04T01:05:01;101212.44;;;-1.59;75.20
22662;BME280;11497;52.222;21.246;2023-04-04T01:07:28;101221.13;;;-1.54;75.81
22662;BME280;11497;52.222;21.246;2023-04-04T01:09:57;101218.16;;;-1.68;76.33
22662;BME280;11497;52.222;21.246;2023-04-04T01:12:25;101209.44;;;-1.75;77.12
22662;BME280;11497;52.222;21.246;2023-04-04T01:14:52;101207.50;;;-1.82;77.51
22662;BME280;11497;52.222;21.246;2023-04-04T01:17:20;101206.69;;;-1.81;77.90
22662;BME280;11497;52.222;21.246;2023-04-04T01:19:52;101204.56;;;-1.94;78.11
22662;BME280;11497;52.222;21.246;2023-04-04T01:22:24;101211.53;;;-1.90;78.26
22662;BME280;11497;52.222;21.246;2023-04-04T01:24:54;101209.53;;;-2.00;79.06
22662;BME280;11497;52.222;21.246;2023-04-04T01:27:24;101210.16;;;-2.07;78.92
22662;BME280;11497;52.222;21.246;2023-04-04T01:29:57;101205.59;;;-2.16;79.72
22662;BME280;11497;52.222;21.246;2023-04-04T01:35:31;101194.47;;;-2.18;80.76
22662;BME280;11497;52.222;21.246;2023-04-04T01:38:05;101196.00;;;-2.23;81.13
22662;BME280;11497;52.222;21.246;2023-04-04T01:40:35;101192.31;;;-2.31;81.12
22662;BME280;11497;52.222;21.246;2023-04-04T01:43:06;101201.31;;;-2.44;81.76
22662;BME280;11497;52.222;21.246;2023-04-04T01:45:36;101203.81;;;-2.45;82.73
22662;BME280;11497;52.222;21.246;2023-04-04T01:48:08;101211.38;;;-2.50;83.07
22662;BME280;11497;52.222;21.246;2023-04-04T01:50:38;101209.00;;;-2.44;82.89
22662;BME280;11497;52.222;21.246;2023-04-04T01:53:07;101215.16;;;-2.39;83.53
22662;BME280;11497;52.222;21.246;2023-04-04T01:55:35;101210.22;;;-2.32;83.28
22662;BME280;11497;52.222;21.246;2023-04-04T01:58:03;101206.53;;;-2.41;83.76
22662;BME280;11497;52.222;21.246;2023-04-04T02:00:31;101211.38;;;-2.50;83.58
22662;BME280;11497;52.222;21.246;2023-04-04T02:02:58;101208.53;;;-2.57;84.43
22662;BME280;11497;52.222;21.246;2023-04-04T02:05:27;101207.50;;;-2.64;84.41
22662;BME280;11497;52.222;21.246;2023-04-04T02:07:54;101206.44;;;-2.71;84.77
22662;BME280;11497;52.222;21.246;2023-04-04T02:10:31;101207.69;;;-2.58;85.55
22662;BME280;11497;52.222;21.246;2023-04-04T02:12:59;101206.63;;;-2.64;85.35
22662;BME280;11497;52.222;21.246;2023-04-04T02:15:27;101209.19;;;-2.64;85.61
22662;BME280;11497;52.222;21.246;2023-04-04T02:17:54;101211.97;;;-2.57;86.33
22662;BME280;11497;52.222;21.246;2023-04-04T02:20:23;101208.22;;;-2.68;85.90
22662;BME280;11497;52.222;21.246;2023-04-04T02:22:54;101207.91;;;-2.77;86.11
22662;BME280;11497;52.222;21.246;2023-04-04T02:25:23;101205.13;;;-2.83;86.92
22662;BME280;11497;52.222;21.246;2023-04-04T02:27:51;101206.78;;;-2.85;87.31
22662;BME280;11497;52.222;21.246;2023-04-04T02:30:19;101198.78;;;-2.94;87.30
22662;BME280;11497;52.222;21.246;2023-04-04T02:32:49;101213.75;;;-3.07;87.45
22662;BME280;11497;52.222;21.246;2023-04-04T02:35:19;101211.56;;;-2.94;88.06
22662;BME280;11497;52.222;21.246;2023-04-04T02:37:47;101210.38;;;-3.06;88.44
22662;BME280;11497;52.222;21.246;2023-04-04T02:40:25;101218.97;;;-3.04;88.59
22662;BME280;11497;52.222;21.246;2023-04-04T02:42:52;101212.94;;;-3.06;88.82
22662;BME280;11497;52.222;21.246;2023-04-04T02:45:21;101206.47;;;-2.94;88.76
22662;BME280;11497;52.222;21.246;2023-04-04T02:48:09;101210.75;;;-2.93;89.25
22662;BME280;11497;52.222;21.246;2023-04-04T02:50:42;101209.84;;;-2.95;89.43
22662;BME280;11497;52.222;21.246;2023-04-04T02:53:12;101213.09;;;-2.99;89.46
22662;BME280;11497;52.222;21.246;2023-04-04T02:55:41;101205.13;;;-3.09;89.96
22662;BME280;11497;52.222;21.246;2023-04-04T02:58:09;101210.16;;;-3.12;90.09
22662;BME280;11497;52.222;21.246;2023-04-04T03:00:37;101210.41;;;-3.04;90.47
22662;BME280;11497;52.222;21.246;2023-04-04T03:03:05;101214.84;;;-2.98;90.52
22662;BME280;11497;52.222;21.246;2023-04-04T03:05:38;101219.78;;;-3.05;90.86
22662;BME280;11497;52.222;21.246;2023-04-04T03:08:06;101219.56;;;-3.11;90.91
22662;BME280;11497;52.222;21.246;2023-04-04T03:10:34;101212.06;;;-3.06;91.07
22662;BME280;11497;52.222;21.246;2023-04-04T03:13:03;101207.59;;;-3.12;91.18
22662;BME280;11497;52.222;21.246;2023-04-04T03:15:33;101209.72;;;-2.98;91.36
22662;BME280;11497;52.222;21.246;2023-04-04T03:18:04;101215.16;;;-2.89;91.78
22662;BME280;11497;52.222;21.246;2023-04-04T03:20:33;101207.50;;;-2.89;91.27
22662;BME280;11497;52.222;21.246;2023-04-04T03:23:01;101210.75;;;-2.93;91.44
22662;BME280;11497;52.222;21.246;2023-04-04T03:25:29;101212.19;;;-3.02;91.78
22662;BME280;11497;52.222;21.246;2023-04-04T03:27:56;101206.94;;;-3.06;91.68
22662;BME280;11497;52.222;21.246;2023-04-04T03:30:26;101207.41;;;-3.16;91.63
22662;BME280;11497;52.222;21.246;2023-04-04T03:32:54;101206.50;;;-3.18;91.92
22662;BME280;11497;52.222;21.246;2023-04-04T03:35:22;101214.34;;;-3.14;92.14
22662;BME280;11497;52.222;21.246;2023-04-04T03:37:49;101208.47;;;-3.11;92.52
22662;BME280;11497;52.222;21.246;2023-04-04T03:40:17;101210.63;;;-3.22;92.67
22662;BME280;11497;52.222;21.246;2023-04-04T03:42:45;101212.91;;;-3.29;92.70
22662;BME280;11497;52.222;21.246;2023-04-04T03:45:18;101205.78;;;-3.38;92.96
22662;BME280;11497;52.222;21.246;2023-04-04T03:47:46;101197.13;;;-3.42;93.04
22662;BME280;11497;52.222;21.246;2023-04-04T03:50:14;101206.47;;;-3.42;93.29
22662;BME280;11497;52.222;21.246;2023-04-04T03:52:47;101206.47;;;-3.42;93.35
22662;BME280;11497;52.222;21.246;2023-04-04T03:55:15;101210.78;;;-3.41;93.86
22662;BME280;11497;52.222;21.246;2023-04-04T03:57:43;101214.91;;;-3.45;94.02
22662;BME280;11497;52.222;21.246;2023-04-04T04:00:14;101212.13;;;-3.52;94.10
22662;BME280;11497;52.222;21.246;2023-04-04T04:02:43;101209.09;;;-3.41;94.27
22662;BME280;11497;52.222;21.246;2023-04-04T04:05:11;101204.09;;;-3.38;94.61
22662;BME280;11497;52.222;21.246;2023-04-04T04:07:41;101204.53;;;-3.25;94.65
22662;BME280;11497;52.222;21.246;2023-04-04T04:10:09;101205.63;;;-3.19;95.19
22662;BME280;11497;52.222;21.246;2023-04-04T04:12:38;101199.69;;;-3.18;95.14
22662;BME280;11497;52.222;21.246;2023-04-04T04:15:06;101200.00;;;-3.09;94.79
22662;BME280;11497;52.222;21.246;2023-04-04T04:17:38;101204.31;;;-3.08;95.09
22662;BME280;11497;52.222;21.246;2023-04-04T04:20:11;101204.22;;;-3.11;95.04
22662;BME280;11497;52.222;21.246;2023-04-04T04:22:44;101202.47;;;-3.12;95.25
22662;BME280;11497;52.222;21.246;2023-04-04T04:25:13;101195.94;;;-3.04;94.79
22662;BME280;11497;52.222;21.246;2023-04-04T04:27:43;101206.34;;;-2.97;94.59
22662;BME280;11497;52.222;21.246;2023-04-04T04:30:13;101200.78;;;-2.86;95.03
22662;BME280;11497;52.222;21.246;2023-04-04T04:32:44;101203.75;;;-2.74;95.01
22662;BME280;11497;52.222;21.246;2023-04-04T04:35:14;101204.00;;;-2.66;94.60
22662;BME280;11497;52.222;21.246;2023-04-04T04:37:42;101201.78;;;-2.55;94.18
22662;BME280;11497;52.222;21.246;2023-04-04T04:40:11;101198.44;;;-2.53;94.19
22662;BME280;11497;52.222;21.246;2023-04-04T04:42:43;101204.69;;;-2.45;94.00
22662;BME280;11497;52.222;21.246;2023-04-04T04:45:11;101199.97;;;-2.32;94.27
22662;BME280;11497;52.222;21.246;2023-04-04T04:47:43;101184.59;;;-2.32;93.76
22662;BME280;11497;52.222;21.246;2023-04-04T04:50:15;101195.19;;;-2.22;93.09
22662;BME280;11497;52.222;21.246;2023-04-04T04:52:48;101192.56;;;-1.95;92.37
22662;BME280;11497;52.222;21.246;2023-04-04T04:55:16;101197.31;;;-1.80;92.23
22662;BME280;11497;52.222;21.246;2023-04-04T04:57:52;101201.47;;;-1.84;91.65
22662;BME280;11497;52.222;21.246;2023-04-04T05:00:24;101197.59;;;-1.70;91.01
22662;BME280;11497;52.222;21.246;2023-04-04T05:02:53;101192.50;;;-1.68;90.75
22662;BME280;11497;52.222;21.246;2023-04-04T05:05:32;101197.22;;;-1.53;90.20
22662;BME280;11497;52.222;21.246;2023-04-04T05:08:04;101194.38;;;0.91;88.51
22662;BME280;11497;52.222;21.246;2023-04-04T05:10:34;101186.13;;;1.60;83.09
22662;BME280;11497;52.222;21.246;2023-04-04T05:13:02;101198.22;;;1.12;80.37
22662;BME280;11497;52.222;21.246;2023-04-04T05:15:38;101190.50;;;0.66;79.48
22662;BME280;11497;52.222;21.246;2023-04-04T05:18:06;101193.34;;;0.37;79.18
22662;BME280;11497;52.222;21.246;2023-04-04T05:20:34;101189.25;;;0.48;78.67
22662;BME280;11497;52.222;21.246;2023-04-04T05:23:03;101189.78;;;1.73;77.45
22662;BME280;11497;52.222;21.246;2023-04-04T05:25:36;101185.66;;;4.83;74.14
22662;BME280;11497;52.222;21.246;2023-04-04T05:28:04;101186.63;;;5.56;66.85
22662;BME280;11497;52.222;21.246;2023-04-04T05:30:32;101182.72;;;4.02;65.04
22662;BME280;11497;52.222;21.246;2023-04-04T05:33:09;101181.84;;;2.94;65.10
22662;BME280;11497;52.222;21.246;2023-04-04T05:35:41;101190.63;;;2.34;66.07
22662;BME280;11497;52.222;21.246;2023-04-04T05:38:09;101188.94;;;4.30;65.14
22662;BME280;11497;52.222;21.246;2023-04-04T05:40:37;101193.53;;;5.12;62.62
22662;BME280;11497;52.222;21.246;2023-04-04T05:43:10;101193.53;;;5.76;59.99
22662;BME280;11497;52.222;21.246;2023-04-04T05:45:49;101191.16;;;8.98;56.45
22662;BME280;11497;52.222;21.246;2023-04-04T05:48:17;101182.44;;;10.90;51.06
22662;BME280;11497;52.222;21.246;2023-04-04T05:50:50;101186.31;;;11.13;46.81
22662;BME280;11497;52.222;21.246;2023-04-04T05:53:24;101184.91;;;9.64;46.39
22662;BME280;11497;52.222;21.246;2023-04-04T05:55:52;101185.06;;;8.27;46.71
22662;BME280;11497;52.222;21.246;2023-04-04T05:58:23;101191.28;;;9.97;45.46
22662;BME280;11497;52.222;21.246;2023-04-04T06:00:56;101190.81;;;11.08;43.50
22662;BME280;11497;52.222;21.246;2023-04-04T06:03:23;101183.63;;;11.53;42.09
22662;BME280;11497;52.222;21.246;2023-04-04T06:05:52;101187.75;;;11.63;40.88
22662;BME280;11497;52.222;21.246;2023-04-04T06:08:20;101189.28;;;12.37;40.09
22662;BME280;11497;52.222;21.246;2023-04-04T06:10:48;101178.38;;;12.52;39.06
22662;BME280;11497;52.222;21.246;2023-04-04T06:13:16;101186.19;;;12.83;37.43
22662;BME280;11497;52.222;21.246;2023-04-04T06:15:50;101187.56;;;12.36;37.13
22662;BME280;11497;52.222;21.246;2023-04-04T06:18:20;101182.13;;;12.12;36.87
22662;BME280;11497;52.222;21.246;2023-04-04T06:20:48;101183.72;;;11.48;37.00
22662;BME280;11497;52.222;21.246;2023-04-04T06:23:16;101173.28;;;11.10;37.33
22662;BME280;11497;52.222;21.246;2023-04-04T06:25:47;101176.75;;;11.12;37.91
22662;BME280;11497;52.222;21.246;2023-04-04T06:28:17;101176.44;;;11.61;37.38
22662;BME280;11497;52.222;21.246;2023-04-04T06:30:47;101175.50;;;11.63;37.41
22662;BME280;11497;52.222;21.246;2023-04-04T06:33:19;101176.88;;;11.43;37.23
22662;BME280;11497;52.222;21.246;2023-04-04T06:35:48;101177.47;;;10.38;37.22
22662;BME280;11497;52.222;21.246;2023-04-04T06:38:17;101168.59;;;9.51;38.61
22662;BME280;11497;52.222;21.246;2023-04-04T06:40:45;101172.84;;;9.02;39.41
22662;BME280;11497;52.222;21.246;2023-04-04T06:43:13;101170.84;;;9.17;39.85
22662;BME280;11497;52.222;21.246;2023-04-04T06:45:45;101172.25;;;8.81;39.89
22662;BME280;11497;52.222;21.246;2023-04-04T06:48:12;101161.38;;;8.49;40.70
22662;BME280;11497;52.222;21.246;2023-04-04T06:50:40;101168.28;;;8.54;41.21
22662;BME280;11497;52.222;21.246;2023-04-04T06:53:12;101166.59;;;8.49;41.05
22662;BME280;11497;52.222;21.246;2023-04-04T06:55:43;101177.47;;;8.81;40.96
22662;BME280;11497;52.222;21.246;2023-04-04T06:58:11;101178.72;;;8.53;41.06
22662;BME280;11497;52.222;21.246;2023-04-04T07:00:39;101170.28;;;8.28;41.19
22662;BME280;11497;52.222;21.246;2023-04-04T07:03:07;101173.13;;;8.08;41.37
22662;BME280;11497;52.222;21.246;2023-04-04T07:05:36;101174.53;;;8.40;41.81
22662;BME280;11497;52.222;21.246;2023-04-04T07:08:06;101166.78;;;8.99;41.14
22662;BME280;11497;52.222;21.246;2023-04-04T07:10:34;101158.81;;;9.61;40.27
22662;BME280;11497;52.222;21.246;2023-04-04T07:13:02;101158.75;;;9.64;40.15
22662;BME280;11497;52.222;21.246;2023-04-04T07:15:30;101155.78;;;10.73;39.19
22662;BME280;11497;52.222;21.246;2023-04-04T07:17:58;101156.13;;;10.96;37.75
22662;BME280;11497;52.222;21.246;2023-04-04T07:20:26;101157.56;;;11.10;37.16
22662;BME280;11497;52.222;21.246;2023-04-04T07:22:54;101153.41;;;11.01;37.48
22662;BME280;11497;52.222;21.246;2023-04-04T07:25:22;101158.75;;;12.34;36.85
22662;BME280;11497;52.222;21.246;2023-04-04T07:27:51;101157.84;;;12.64;35.34
22662;BME280;11497;52.222;21.246;2023-04-04T07:30:32;101156.03;;;12.06;34.65
22662;BME280;11497;52.222;21.246;2023-04-04T07:33:00;101161.09;;;11.80;34.73
22662;BME280;11497;52.222;21.246;2023-04-04T07:35:28;101148.06;;;11.77;34.45
22662;BME280;11497;52.222;21.246;2023-04-04T07:37:56;101156.19;;;11.66;34.27
22662;BME280;11497;52.222;21.246;2023-04-04T07:40:24;101150.59;;;11.80;34.21
22662;BME280;11497;52.222;21.246;2023-04-04T07:42:52;101139.25;;;13.28;33.45
22662;BME280;11497;52.222;21.246;2023-04-04T07:45:21;101141.38;;;14.43;32.32
22662;BME280;11497;52.222;21.246;2023-04-04T07:47:49;101144.72;;;15.99;30.61
22662;BME280;11497;52.222;21.246;2023-04-04T07:50:17;101145.84;;;16.33;29.16
22662;BME280;11497;52.222;21.246;2023-04-04T07:52:47;101139.59;;;14.43;28.83
22662;BME280;11497;52.222;21.246;2023-04-04T07:55:16;101141.84;;;13.29;29.85
22662;BME280;11497;52.222;21.246;2023-04-04T07:57:43;101141.38;;;14.66;29.74
22662;BME280;11497;52.222;21.246;2023-04-04T08:00:11;101137.28;;;15.46;28.76
22662;BME280;11497;52.222;21.246;2023-04-04T08:02:42;101130.63;;;14.72;28.26
22662;BME280;11497;52.222;21.246;2023-04-04T08:05:12;101131.28;;;13.02;29.08
22662;BME280;11497;52.222;21.246;2023-04-04T08:07:39;101126.53;;;12.86;29.90
22662;BME280;11497;52.222;21.246;2023-04-04T08:10:08;101122.22;;;14.14;29.35
22662;BME280;11497;52.222;21.246;2023-04-04T08:12:36;101117.31;;;15.61;28.43
22662;BME280;11497;52.222;21.246;2023-04-04T08:15:04;101125.94;;;17.01;27.47
22662;BME280;11497;52.222;21.246;2023-04-04T08:17:32;101108.94;;;18.25;25.64
22662;BME280;11497;52.222;21.246;2023-04-04T08:20:00;101119.56;;;18.41;24.78
22662;BME280;11497;52.222;21.246;2023-04-04T08:22:27;101128.88;;;19.43;23.78
22662;BME280;11497;52.222;21.246;2023-04-04T08:24:55;101114.66;;;18.82;23.02
22662;BME280;11497;52.222;21.246;2023-04-04T08:27:23;101104.84;;;19.30;22.66
22662;BME280;11497;52.222;21.246;2023-04-04T08:29:51;101111.19;;;17.14;22.48
22662;BME280;11497;52.222;21.246;2023-04-04T08:32:19;101106.66;;;16.61;23.46
22662;BME280;11497;52.222;21.246;2023-04-04T08:34:47;101112.41;;;14.43;24.14
22662;BME280;11497;52.222;21.246;2023-04-04T08:37:14;101120.47;;;12.84;25.83
22662;BME280;11497;52.222;21.246;2023-04-04T08:39:43;101113.41;;;11.30;26.21
22662;BME280;11497;52.222;21.246;2023-04-04T08:42:11;101109.13;;;10.90;27.88
22662;BME280;11497;52.222;21.246;2023-04-04T08:44:41;101109.97;;;10.54;28.42
22662;BME280;11497;52.222;21.246;2023-04-04T08:47:12;101104.94;;;13.32;27.76
22662;BME280;11497;52.222;21.246;2023-04-04T08:49:42;101102.28;;;12.78;26.77
22662;BME280;11497;52.222;21.246;2023-04-04T08:52:13;101101.22;;;12.84;27.02
22662;BME280;11497;52.222;21.246;2023-04-04T08:54:41;101109.28;;;11.55;27.34
22662;BME280;11497;52.222;21.246;2023-04-04T08:57:10;101114.69;;;9.92;28.02
22662;BME280;11497;52.222;21.246;2023-04-04T08:59:38;101112.47;;;9.20;28.99
22662;BME280;11497;52.222;21.246;2023-04-04T09:04:38;101112.44;;;7.94;32.23
22662;BME280;11497;52.222;21.246;2023-04-04T09:07:06;101107.94;;;7.24;33.40
22662;BME280;11497;52.222;21.246;2023-04-04T09:09:34;101112.03;;;9.47;33.65
22662;BME280;11497;52.222;21.246;2023-04-04T09:12:04;101091.47;;;10.98;31.74
22662;BME280;11497;52.222;21.246;2023-04-04T09:14:32;101095.84;;;10.61;30.65
22662;BME280;11497;52.222;21.246;2023-04-04T09:17:03;101093.34;;;10.13;30.65
22662;BME280;11497;52.222;21.246;2023-04-04T09:19:31;101103.72;;;9.24;31.01
22662;BME280;11497;52.222;21.246;2023-04-04T09:21:59;101101.03;;;9.78;31.91
22662;BME280;11497;52.222;21.246;2023-04-04T09:24:45;101102.31;;;9.54;31.66
22662;BME280;11497;52.222;21.246;2023-04-04T09:27:14;101101.56;;;8.95;31.84
22662;BME280;11497;52.222;21.246;2023-04-04T09:29:42;101101.81;;;8.12;31.89
22662;BME280;11497;52.222;21.246;2023-04-04T09:32:13;101097.13;;;7.65;32.28
22662;BME280;11497;52.222;21.246;2023-04-04T09:34:42;101104.50;;;7.19;33.44
22662;BME280;11497;52.222;21.246;2023-04-04T09:37:12;101098.94;;;7.58;33.58
22662;BME280;11497;52.222;21.246;2023-04-04T09:39:42;101105.84;;;7.62;34.26
22662;BME280;11497;52.222;21.246;2023-04-04T09:42:10;101105.09;;;7.50;33.80
22662;BME280;11497;52.222;21.246;2023-04-04T09:44:39;101101.16;;;6.98;34.46
22662;BME280;11497;52.222;21.246;2023-04-04T09:47:25;101098.13;;;6.32;35.29
22662;BME280;11497;52.222;21.246;2023-04-04T09:50:00;101103.47;;;5.99;36.03
22662;BME280;11497;52.222;21.246;2023-04-04T09:52:30;101107.72;;;6.14;36.36
22662;BME280;11497;52.222;21.246;2023-04-04T09:55:00;101113.59;;;6.54;35.76
22662;BME280;11497;52.222;21.246;2023-04-04T09:57:28;101103.97;;;6.73;35.96
22662;BME280;11497;52.222;21.246;2023-04-04T09:59:57;101099.41;;;7.04;34.96
22662;BME280;11497;52.222;21.246;2023-04-04T10:02:29;101099.28;;;7.22;34.57
22662;BME280;11497;52.222;21.246;2023-04-04T10:04:58;101102.13;;;6.90;35.39
22662;BME280;11497;52.222;21.246;2023-04-04T10:07:32;101101.53;;;6.48;35.54
22662;BME280;11497;52.222;21.246;2023-04-04T10:10:05;101103.38;;;6.17;35.51
22662;BME280;11497;52.222;21.246;2023-04-04T10:12:33;101099.03;;;6.16;35.97
22662;BME280;11497;52.222;21.246;2023-04-04T10:15:01;101098.16;;;6.25;35.68
22662;BME280;11497;52.222;21.246;2023-04-04T10:17:29;101106.75;;;6.41;36.03
22662;BME280;11497;52.222;21.246;2023-04-04T10:20:00;101100.56;;;6.60;35.94
22662;BME280;11497;52.222;21.246;2023-04-04T10:22:31;101103.31;;;6.32;36.12
22662;BME280;11497;52.222;21.246;2023-04-04T10:24:59;101098.81;;;6.63;36.56
22662;BME280;11497;52.222;21.246;2023-04-04T10:27:27;101099.88;;;6.26;37.12
22662;BME280;11497;52.222;21.246;2023-04-04T10:29:55;101092.91;;;6.36;36.97
22662;BME280;11497;52.222;21.246;2023-04-04T10:32:38;101097.97;;;6.60;36.19
22662;BME280;11497;52.222;21.246;2023-04-04T10:35:10;101096.84;;;6.96;36.48
22662;BME280;11497;52.222;21.246;2023-04-04T10:37:41;101100.44;;;6.80;37.18
22662;BME280;11497;52.222;21.246;2023-04-04T10:40:14;101103.19;;;6.54;38.08
22662;BME280;11497;52.222;21.246;2023-04-04T10:42:43;101092.75;;;6.63;38.12
22662;BME280;11497;52.222;21.246;2023-04-04T10:45:14;101088.97;;;7.07;38.11
22662;BME280;11497;52.222;21.246;2023-04-04T10:47:48;101096.44;;;7.45;38.01
22662;BME280;11497;52.222;21.246;2023-04-04T10:50:17;101086.75;;;7.60;37.91
22662;BME280;11497;52.222;21.246;2023-04-04T10:52:46;101091.69;;;7.85;37.88
22662;BME280;11497;52.222;21.246;2023-04-04T10:55:14;101091.66;;;7.88;37.39
22662;BME280;11497;52.222;21.246;2023-04-04T10:57:43;101092.00;;;7.54;37.01
22662;BME280;11497;52.222;21.246;2023-04-04T11:00:13;101086.91;;;7.42;37.52
22662;BME280;11497;52.222;21.246;2023-04-04T11:07:44;101076.34;;;8.31;36.19
22662;BME280;11497;52.222;21.246;2023-04-04T11:10:32;101071.63;;;7.93;35.75
22662;BME280;11497;52.222;21.246;2023-04-04T11:13:02;101075.88;;;7.17;35.91
22662;BME280;11497;52.222;21.246;2023-04-04T11:15:44;101077.16;;;6.60;36.19
22662;BME280;11497;52.222;21.246;2023-04-04T11:18:12;101073.00;;;6.31;36.78
22662;BME280;11497;52.222;21.246;2023-04-04T11:21:02;101072.16;;;6.26;37.24
22662;BME280;11497;52.222;21.246;2023-04-04T11:28:57;101076.69;;;5.60;40.56
22662;BME280;11497;52.222;21.246;2023-04-04T11:33:55;101080.16;;;5.52;41.92
22662;BME280;11497;52.222;21.246;2023-04-04T11:36:47;101077.50;;;5.93;41.82
22662;BME280;11497;52.222;21.246;2023-04-04T11:39:12;101074.78;;;6.22;41.47
22662;BME280;11497;52.222;21.246;2023-04-04T11:44:21;101075.34;;;6.73;41.77
22662;BME280;11497;52.222;21.246;2023-04-04T11:49:27;101071.41;;;7.33;40.80
22662;BME280;11497;52.222;21.246;2023-04-04T11:51:57;101077.88;;;6.83;40.34
22662;BME280;11497;52.222;21.246;2023-04-04T11:54:25;101073.69;;;6.58;40.15
22662;BME280;11497;52.222;21.246;2023-04-04T11:56:53;101065.91;;;6.55;40.57
22662;BME280;11497;52.222;21.246;2023-04-04T11:59:21;101069.56;;;6.23;40.21
22662;BME280;11497;52.222;21.246;2023-04-04T12:01:49;101067.88;;;6.10;40.01
22662;BME280;11497;52.222;21.246;2023-04-04T12:04:17;101064.53;;;5.75;40.17
22662;BME280;11497;52.222;21.246;2023-04-04T12:06:51;101062.03;;;5.23;40.90
22662;BME280;11497;52.222;21.246;2023-04-04T12:09:21;101072.44;;;5.14;41.89
22662;BME280;11497;52.222;21.246;2023-04-04T12:11:49;101067.22;;;5.05;43.47
22662;BME280;11497;52.222;21.246;2023-04-04T12:14:18;101068.06;;;4.81;44.94
22662;BME280;11497;52.222;21.246;2023-04-04T12:16:47;101065.50;;;4.88;45.52
22662;BME280;11497;52.222;21.246;2023-04-04T12:19:15;101070.69;;;4.88;46.39
22662;BME280;11497;52.222;21.246;2023-04-04T12:21:44;101065.47;;;4.79;46.92
22662;BME280;11497;52.222;21.246;2023-04-04T12:24:12;101072.38;;;4.53;48.07
22662;BME280;11497;52.222;21.246;2023-04-04T12:26:41;101069.81;;;4.85;48.59
22662;BME280;11497;52.222;21.246;2023-04-04T12:29:12;101067.22;;;5.23;48.67
22662;BME280;11497;52.222;21.246;2023-04-04T12:31:42;101058.47;;;5.69;47.64
22662;BME280;11497;52.222;21.246;2023-04-04T12:34:17;101055.81;;;6.02;47.08
22662;BME280;11497;52.222;21.246;2023-04-04T12:36:50;101055.75;;;6.14;46.46
22662;BME280;11497;52.222;21.246;2023-04-04T12:39:19;101053.97;;;6.23;46.10
22662;BME280;11497;52.222;21.246;2023-04-04T12:41:51;101054.91;;;6.07;45.25
22662;BME280;11497;52.222;21.246;2023-04-04T12:44:32;101052.38;;;5.83;45.14
22662;BME280;11497;52.222;21.246;2023-04-04T12:47:02;101048.09;;;5.65;45.19
22662;BME280;11497;52.222;21.246;2023-04-04T12:49:33;101047.19;;;5.75;45.14
22662;BME280;11497;52.222;21.246;2023-04-04T12:52:01;101051.63;;;5.43;45.12
22662;BME280;11497;52.222;21.246;2023-04-04T12:54:35;101050.75;;;5.51;45.80
22662;BME280;11497;52.222;21.246;2023-04-04T12:57:05;101052.50;;;5.35;45.71
22662;BME280;11497;52.222;21.246;2023-04-04T12:59:34;101057.69;;;5.20;45.50
22662;BME280;11497;52.222;21.246;2023-04-04T13:02:07;101051.66;;;4.86;46.03
22662;BME280;11497;52.222;21.246;2023-04-04T13:04:35;101051.66;;;4.62;46.94
22662;BME280;11497;52.222;21.246;2023-04-04T13:07:04;101053.31;;;4.29;48.29
22662;BME280;11497;52.222;21.246;2023-04-04T13:09:32;101055.91;;;4.39;49.59
22662;BME280;11497;52.222;21.246;2023-04-04T13:12:03;101047.25;;;4.38;50.17
22662;BME280;11497;52.222;21.246;2023-04-04T13:17:18;101049.94;;;4.73;50.72
22662;BME280;11497;52.222;21.246;2023-04-04T13:19:46;101047.28;;;4.47;50.00
22662;BME280;11497;52.222;21.246;2023-04-04T13:22:13;101052.41;;;4.17;50.57
22662;BME280;11497;52.222;21.246;2023-04-04T13:24:41;101048.16;;;4.32;51.46